createdAt,value
2023-05-08T00:01:44.865Z,19.53
2023-05-08T00:04:13.811Z,19.50
2023-05-08T00:06:42.729Z,19.53
2023-05-08T00:09:11.293Z,19.59
2023-05-08T00:11:40.188Z,19.61
2023-05-08T00:14:08.729Z,19.59
2023-05-08T00:16:39.199Z,19.58
2023-05-08T00:19:08.709Z,19.54
2023-05-08T00:21:37.522Z,19.55
2023-05-08T00:24:06.307Z,19.47
2023-05-08T00:26:35.299Z,19.44
2023-05-08T00:29:06.000Z,19.41
2023-05-08T00:31:35.542Z,19.38
2023-05-08T00:34:05.739Z,19.36
2023-05-08T00:36:34.629Z,19.32
2023-05-08T00:39:03.780Z,19.31
2023-05-08T00:41:32.665Z,19.25
2023-05-08T00:44:01.267Z,19.23
2023-05-08T00:46:30.297Z,19.20
2023-05-08T00:48:59.618Z,19.18
2023-05-08T00:51:30.481Z,19.19
2023-05-08T00:54:00.923Z,19.13
2023-05-08T00:56:30.942Z,19.13
2023-05-08T00:59:00.388Z,19.08
2023-05-08T01:01:30.188Z,19.04
2023-05-08T01:03:58.878Z,19.03
2023-05-08T01:06:29.157Z,19.04
2023-05-08T01:08:57.851Z,19.02
2023-05-08T01:11:35.190Z,19.08
2023-05-08T01:14:14.230Z,19.07
2023-05-08T01:16:47.793Z,19.02
2023-05-08T01:19:41.962Z,18.31
2023-05-08T01:22:27.146Z,17.68
2023-05-08T01:25:47.586Z,17.58
2023-05-08T01:28:40.160Z,16.94
2023-05-08T01:31:22.407Z,16.17
2023-05-08T01:34:06.435Z,15.40
2023-05-08T01:36:51.416Z,14.82
2023-05-08T01:39:23.932Z,14.31
2023-05-08T01:42:00.295Z,14.28
2023-05-08T01:44:36.317Z,14.43
2023-05-08T01:47:08.040Z,13.99
2023-05-08T01:49:42.417Z,13.89
2023-05-08T01:52:19.370Z,14.21
2023-05-08T01:54:57.024Z,14.78
2023-05-08T01:57:30.101Z,15.11
2023-05-08T02:00:03.746Z,15.19
2023-05-08T02:02:39.302Z,15.04
2023-05-08T02:05:12.250Z,15.15
2023-05-08T02:07:43.882Z,15.36
2023-05-08T02:10:15.113Z,15.65
2023-05-08T02:12:45.727Z,15.78
2023-05-08T02:15:17.236Z,15.68
2023-05-08T02:17:49.734Z,15.82
2023-05-08T02:20:22.269Z,15.90
2023-05-08T02:22:52.976Z,15.91
2023-05-08T02:25:22.990Z,15.88
2023-05-08T02:27:54.685Z,15.91
2023-05-08T02:30:27.349Z,15.91
2023-05-08T02:33:00.618Z,16.03
2023-05-08T02:35:32.759Z,16.15
2023-05-08T02:38:03.720Z,15.88
2023-05-08T02:40:33.965Z,15.79
2023-05-08T02:43:03.063Z,15.88
2023-05-08T02:45:37.278Z,15.92
2023-05-08T02:48:14.154Z,15.73
2023-05-08T02:50:49.776Z,15.62
2023-05-08T02:53:27.590Z,15.41
2023-05-08T02:56:03.638Z,15.27
2023-05-08T02:58:38.532Z,15.19
2023-05-08T03:01:12.842Z,15.27
2023-05-08T03:03:45.785Z,15.31
2023-05-08T03:06:20.671Z,15.51
2023-05-08T03:08:51.832Z,15.22
2023-05-08T03:11:25.603Z,14.71
2023-05-08T03:14:00.127Z,14.92
2023-05-08T03:16:36.127Z,15.07
2023-05-08T03:19:09.619Z,15.02
2023-05-08T03:21:42.192Z,14.88
2023-05-08T03:24:15.688Z,15.01
2023-05-08T03:26:45.093Z,15.09
2023-05-08T03:29:15.883Z,15.12
2023-05-08T03:31:45.926Z,15.07
2023-05-08T03:34:16.844Z,15.09
2023-05-08T03:36:47.438Z,15.03
2023-05-08T03:39:16.671Z,15.04
2023-05-08T03:41:45.679Z,14.81
2023-05-08T03:44:16.243Z,14.66
2023-05-08T03:46:46.384Z,14.54
2023-05-08T03:49:16.479Z,14.40
2023-05-08T03:51:47.180Z,14.22
2023-05-08T03:54:16.967Z,14.27
2023-05-08T03:56:47.937Z,14.24
2023-05-08T03:59:23.117Z,14.18
2023-05-08T04:02:00.462Z,14.01
2023-05-08T04:04:40.844Z,14.14
2023-05-08T04:07:18.768Z,14.11
2023-05-08T04:09:59.547Z,14.28
2023-05-08T04:12:39.715Z,14.26
2023-05-08T04:15:21.653Z,14.43
2023-05-08T04:17:54.652Z,14.41
2023-05-08T04:20:27.237Z,14.41
2023-05-08T04:22:59.739Z,14.53
2023-05-08T04:25:30.920Z,14.66
2023-05-08T04:28:00.481Z,14.80
2023-05-08T04:30:30.371Z,14.93
2023-05-08T04:33:00.483Z,14.97
2023-05-08T04:35:29.775Z,14.95
2023-05-08T04:38:00.203Z,14.90
2023-05-08T04:40:29.491Z,14.77
2023-05-08T04:42:58.994Z,14.77
2023-05-08T04:45:28.936Z,14.58
2023-05-08T04:47:57.645Z,14.70
2023-05-08T04:50:26.671Z,14.76
2023-05-08T04:52:55.822Z,14.75
2023-05-08T04:55:26.366Z,14.65
2023-05-08T04:57:55.220Z,14.48
2023-05-08T05:00:24.871Z,14.20
2023-05-08T05:02:54.302Z,13.80
2023-05-08T05:05:23.490Z,13.90
2023-05-08T05:07:52.073Z,13.88
2023-05-08T05:10:22.336Z,14.07
2023-05-08T05:12:52.406Z,14.08
2023-05-08T05:15:21.570Z,14.18
2023-05-08T05:17:50.623Z,14.26
2023-05-08T05:20:19.880Z,14.29
2023-05-08T05:22:48.710Z,14.38
2023-05-08T05:25:17.920Z,14.36
2023-05-08T05:27:47.031Z,14.39
2023-05-08T05:30:17.712Z,14.47
2023-05-08T05:32:46.722Z,14.42
2023-05-08T05:35:15.812Z,14.40
2023-05-08T05:37:44.509Z,14.37
2023-05-08T05:40:14.541Z,14.29
2023-05-08T05:42:44.438Z,14.15
2023-05-08T05:45:15.344Z,14.20
2023-05-08T05:47:50.060Z,14.20
2023-05-08T05:50:22.591Z,14.19
2023-05-08T05:52:52.098Z,14.11
2023-05-08T05:55:22.209Z,14.05
2023-05-08T05:57:51.140Z,13.97
2023-05-08T06:00:21.593Z,14.04
2023-05-08T06:02:56.665Z,14.12
2023-05-08T06:05:25.920Z,14.14
2023-05-08T06:07:54.555Z,14.04
2023-05-08T06:10:23.701Z,13.91
2023-05-08T06:12:52.411Z,13.92
2023-05-08T06:15:21.663Z,13.72
2023-05-08T06:17:50.459Z,13.51
2023-05-08T06:20:30.901Z,13.51
2023-05-08T06:22:59.504Z,13.31
2023-05-08T06:25:28.501Z,13.14
2023-05-08T06:27:57.078Z,13.06
2023-05-08T06:30:26.105Z,11.80
2023-05-08T06:32:54.744Z,11.04
2023-05-08T06:35:24.011Z,10.53
2023-05-08T06:37:54.009Z,10.16
2023-05-08T06:40:23.725Z,9.55
2023-05-08T06:42:52.331Z,9.14
2023-05-08T06:45:21.493Z,9.01
2023-05-08T06:47:50.036Z,8.88
2023-05-08T06:50:19.087Z,9.44
2023-05-08T06:52:47.683Z,9.45
2023-05-08T06:55:17.968Z,9.48
2023-05-08T06:57:46.627Z,9.77
2023-05-08T07:00:16.378Z,9.93
2023-05-08T07:02:45.134Z,10.16
2023-05-08T07:05:14.492Z,10.23
2023-05-08T07:07:43.783Z,10.16
2023-05-08T07:10:12.790Z,10.09
2023-05-08T07:12:42.874Z,10.29
2023-05-08T07:15:24.785Z,10.49
2023-05-08T07:17:55.012Z,10.61
2023-05-08T07:20:24.752Z,10.65
2023-05-08T07:22:53.488Z,10.68
2023-05-08T07:25:22.546Z,10.70
2023-05-08T07:27:52.607Z,10.83
2023-05-08T07:30:21.524Z,10.90
2023-05-08T07:32:50.092Z,10.75
2023-05-08T07:35:19.824Z,11.01
2023-05-08T07:37:48.653Z,11.10
2023-05-08T07:40:18.072Z,11.11
2023-05-08T07:42:46.713Z,11.15
2023-05-08T07:45:17.417Z,10.99
2023-05-08T07:47:53.656Z,10.91
2023-05-08T07:50:25.107Z,10.69
2023-05-08T07:52:54.377Z,10.43
2023-05-08T07:55:23.429Z,10.43
2023-05-08T07:57:52.249Z,10.44
2023-05-08T08:00:23.026Z,10.43
2023-05-08T08:02:52.125Z,10.45
2023-05-08T08:05:21.475Z,10.51
2023-05-08T08:07:50.064Z,10.69
2023-05-08T08:10:19.355Z,10.78
2023-05-08T08:12:47.967Z,10.72
2023-05-08T08:15:16.889Z,10.76
2023-05-08T08:17:46.928Z,10.84
2023-05-08T08:20:15.988Z,9.12
2023-05-08T08:22:44.539Z,7.99
2023-05-08T08:25:13.780Z,7.67
2023-05-08T08:27:42.575Z,7.40
2023-05-08T08:30:16.927Z,7.26
2023-05-08T08:32:48.247Z,7.09
2023-05-08T08:35:17.387Z,6.94
2023-05-08T08:37:46.308Z,6.94
2023-05-08T08:40:15.213Z,6.76
2023-05-08T08:42:43.797Z,6.93
2023-05-08T08:45:13.132Z,6.90
2023-05-08T08:47:47.043Z,7.15
2023-05-08T08:50:16.916Z,7.48
2023-05-08T08:52:54.538Z,7.47
2023-05-08T08:55:27.409Z,7.46
2023-05-08T08:58:08.688Z,7.91
2023-05-08T09:00:38.871Z,8.42
2023-05-08T09:03:09.125Z,8.72
2023-05-08T09:05:38.723Z,9.16
2023-05-08T09:08:08.231Z,9.36
2023-05-08T09:10:37.914Z,9.54
2023-05-08T09:13:06.746Z,9.58
2023-05-08T09:15:35.682Z,9.64
2023-05-08T09:18:04.467Z,9.73
2023-05-08T09:20:35.666Z,9.99
2023-05-08T09:23:04.368Z,10.16
2023-05-08T09:25:43.478Z,8.37
2023-05-08T09:28:19.115Z,8.04
2023-05-08T09:30:52.629Z,8.10
2023-05-08T09:33:23.344Z,8.20
2023-05-08T09:35:54.152Z,8.03
2023-05-08T09:38:35.146Z,7.67
2023-05-08T09:41:11.570Z,7.45
2023-05-08T09:43:40.367Z,7.58
2023-05-08T09:46:23.527Z,7.64
2023-05-08T09:48:54.683Z,7.84
2023-05-08T09:51:26.476Z,7.70
2023-05-08T09:53:57.234Z,7.92
2023-05-08T09:56:36.241Z,8.43
2023-05-08T09:59:06.920Z,8.17
2023-05-08T10:01:37.663Z,7.56
2023-05-08T10:04:06.770Z,8.04
2023-05-08T10:06:37.479Z,7.48
2023-05-08T10:09:10.973Z,7.26
2023-05-08T10:11:40.707Z,7.22
2023-05-08T10:14:09.743Z,7.12
2023-05-08T10:16:43.730Z,7.35
2023-05-08T10:19:15.758Z,7.81
2023-05-08T10:21:48.320Z,8.36
2023-05-08T10:24:18.930Z,8.38
2023-05-08T10:27:06.807Z,8.21
2023-05-08T10:29:48.482Z,7.67
2023-05-08T10:32:21.749Z,7.63
2023-05-08T10:34:57.597Z,7.21
2023-05-08T10:37:31.187Z,7.21
2023-05-08T10:40:00.924Z,7.17
2023-05-08T10:42:30.559Z,7.19
2023-05-08T10:44:59.495Z,7.67
2023-05-08T10:47:37.614Z,8.19
2023-05-08T10:50:17.486Z,8.19
2023-05-08T10:52:54.917Z,8.34
2023-05-08T10:55:29.486Z,7.97
2023-05-08T10:58:12.382Z,7.82
2023-05-08T11:01:12.571Z,7.73
2023-05-08T11:03:44.087Z,7.61
2023-05-08T11:06:13.693Z,7.57
2023-05-08T11:08:51.996Z,7.87
2023-05-08T11:11:31.644Z,8.00
2023-05-08T11:14:16.423Z,8.10
2023-05-08T11:17:08.405Z,8.29
2023-05-08T11:19:38.962Z,8.21
2023-05-08T11:22:15.147Z,8.51
2023-05-08T11:24:52.163Z,8.58
2023-05-08T11:27:42.800Z,8.71
2023-05-08T11:30:27.076Z,9.17
2023-05-08T11:33:16.747Z,9.89
2023-05-08T11:35:57.101Z,9.53
2023-05-08T11:38:31.915Z,9.71
2023-05-08T11:41:07.233Z,9.32
2023-05-08T11:44:20.537Z,9.02
2023-05-08T11:46:54.061Z,9.38
2023-05-08T11:49:29.115Z,9.60
2023-05-08T11:52:01.226Z,9.96
2023-05-08T11:54:32.402Z,10.13
2023-05-08T11:57:02.978Z,10.19
2023-05-08T11:59:36.903Z,11.13
2023-05-08T12:02:09.149Z,10.71
2023-05-08T12:04:46.664Z,11.71
2023-05-08T12:07:16.751Z,11.49
2023-05-08T12:09:47.651Z,10.68
2023-05-08T12:12:18.339Z,11.69
2023-05-08T12:14:51.014Z,12.67
2023-05-08T12:17:20.277Z,13.00
2023-05-08T12:19:49.024Z,13.84
2023-05-08T12:22:17.808Z,13.33
2023-05-08T12:24:46.596Z,13.74
2023-05-08T12:27:15.541Z,14.48
2023-05-08T12:29:47.602Z,14.53
2023-05-08T12:32:16.482Z,14.03
2023-05-08T12:34:45.171Z,15.24
2023-05-08T12:37:25.377Z,15.09
2023-05-08T12:39:53.792Z,15.55
2023-05-08T12:42:22.699Z,16.36
2023-05-08T12:44:55.439Z,16.03
2023-05-08T12:47:26.846Z,16.28
2023-05-08T12:49:59.270Z,17.30
2023-05-08T12:52:29.383Z,16.57
2023-05-08T12:54:57.813Z,17.84
2023-05-08T12:57:26.621Z,18.59
2023-05-08T13:00:05.202Z,18.53
2023-05-08T13:02:39.342Z,19.77
2023-05-08T13:05:12.977Z,17.39
2023-05-08T13:07:41.752Z,17.29
2023-05-08T13:10:10.697Z,17.70
2023-05-08T13:12:39.634Z,18.13
2023-05-08T13:15:11.347Z,16.95
2023-05-08T13:17:40.428Z,16.33
2023-05-08T13:20:11.374Z,16.22
2023-05-08T13:22:40.517Z,15.68
2023-05-08T13:25:10.415Z,15.61
2023-05-08T13:27:39.741Z,15.87
2023-05-08T13:30:11.166Z,16.15
2023-05-08T13:32:40.270Z,15.48
2023-05-08T13:35:09.373Z,15.29
2023-05-08T13:37:38.218Z,15.25
2023-05-08T13:40:08.412Z,15.37
2023-05-08T13:42:37.445Z,15.22
2023-05-08T13:45:06.767Z,14.98
2023-05-08T13:47:36.975Z,14.86
2023-05-08T13:50:05.820Z,15.30
2023-05-08T13:52:34.548Z,14.85
2023-05-08T13:55:03.154Z,15.70
2023-05-08T13:57:32.166Z,15.34
2023-05-08T14:00:00.935Z,14.79
2023-05-08T14:02:29.910Z,14.16
2023-05-08T14:04:59.936Z,14.14
2023-05-08T14:07:30.144Z,14.39
2023-05-08T14:09:58.651Z,14.34
2023-05-08T14:12:27.427Z,14.50
2023-05-08T14:14:55.883Z,15.10
2023-05-08T14:17:24.843Z,15.84
2023-05-08T14:19:53.295Z,16.35
2023-05-08T14:22:23.561Z,16.77
2023-05-08T14:24:53.053Z,17.14
2023-05-08T14:27:21.968Z,17.08
2023-05-08T14:29:50.497Z,16.34
2023-05-08T14:32:19.269Z,16.50
2023-05-08T14:34:47.667Z,15.76
2023-05-08T14:37:17.667Z,15.43
2023-05-08T14:39:47.591Z,15.08
2023-05-08T14:42:22.256Z,15.58
2023-05-08T14:44:51.813Z,14.87
2023-05-08T14:47:20.691Z,15.02
2023-05-08T14:49:49.244Z,15.04
2023-05-08T14:52:18.187Z,15.03
2023-05-08T14:54:53.064Z,15.73
2023-05-08T14:57:22.345Z,16.09
2023-05-08T15:02:22.669Z,14.94
2023-05-08T15:04:51.370Z,15.38
2023-05-08T15:07:20.238Z,15.84
2023-05-08T15:09:50.151Z,15.87
2023-05-08T15:12:18.990Z,16.37
2023-05-08T15:14:47.540Z,16.90
2023-05-08T15:17:16.589Z,17.04
2023-05-08T15:19:45.860Z,17.41
2023-05-08T15:22:14.705Z,17.41
2023-05-08T15:24:43.248Z,17.53
2023-05-08T15:27:14.273Z,16.24
2023-05-08T15:29:42.706Z,15.74
2023-05-08T15:32:11.516Z,15.25
2023-05-08T15:34:40.735Z,15.21
2023-05-08T15:37:09.612Z,15.30
2023-05-08T15:39:38.137Z,15.92
2023-05-08T15:42:07.181Z,16.31
2023-05-08T15:44:54.116Z,16.39
2023-05-08T15:47:24.025Z,16.35
2023-05-08T15:49:52.559Z,16.70
2023-05-08T15:52:22.738Z,16.55
2023-05-08T15:54:51.704Z,17.13
2023-05-08T15:57:20.440Z,17.30
2023-05-08T15:59:50.329Z,17.60
2023-05-08T16:02:19.188Z,17.69
2023-05-08T16:04:47.639Z,16.66
2023-05-08T16:07:16.491Z,16.36
2023-05-08T16:09:45.476Z,16.06
2023-05-08T16:12:14.263Z,15.93
2023-05-08T16:14:42.683Z,15.58
2023-05-08T16:17:12.933Z,16.22
2023-05-08T16:19:41.435Z,16.48
2023-05-08T16:22:10.252Z,16.60
2023-05-08T16:24:38.682Z,16.80
2023-05-08T16:27:07.757Z,16.90
2023-05-08T16:29:37.148Z,17.00
2023-05-08T16:32:06.470Z,16.96
2023-05-08T16:34:36.796Z,16.49
2023-05-08T16:37:05.802Z,16.82
2023-05-08T16:39:34.237Z,16.68
2023-05-08T16:42:03.158Z,16.74
2023-05-08T16:44:31.702Z,16.91
2023-05-08T16:47:00.918Z,16.79
2023-05-08T16:49:29.444Z,16.91
2023-05-08T16:52:00.004Z,16.52
2023-05-08T16:54:28.420Z,16.60
2023-05-08T16:56:57.276Z,16.94
2023-05-08T16:59:25.825Z,17.09
2023-05-08T17:01:54.640Z,17.24
2023-05-08T17:04:23.202Z,17.19
2023-05-08T17:06:52.098Z,17.15
2023-05-08T17:09:21.913Z,17.33
2023-05-08T17:11:50.802Z,17.45
2023-05-08T17:14:19.347Z,17.49
2023-05-08T17:16:48.465Z,17.60
2023-05-08T17:19:17.161Z,17.56
2023-05-08T17:21:46.006Z,17.57
2023-05-08T17:24:14.767Z,17.27
2023-05-08T17:26:45.113Z,17.31
2023-05-08T17:29:13.700Z,17.39
2023-05-08T17:31:43.059Z,17.59
2023-05-08T17:34:13.155Z,17.55
2023-05-08T17:36:42.114Z,17.06
2023-05-08T17:39:11.676Z,16.94
2023-05-08T17:41:40.863Z,16.84
2023-05-08T17:44:12.304Z,16.83
2023-05-08T17:46:41.333Z,16.48
2023-05-08T17:49:10.357Z,16.76
2023-05-08T17:51:39.829Z,16.72
2023-05-08T17:54:08.580Z,16.85
2023-05-08T17:56:37.448Z,16.76
2023-05-08T17:59:06.774Z,16.76
2023-05-08T18:01:37.058Z,16.80
2023-05-08T18:04:05.992Z,16.73
2023-05-08T18:06:35.033Z,16.50
2023-05-08T18:09:03.806Z,16.60
2023-05-08T18:11:32.821Z,16.01
2023-05-08T18:14:01.363Z,15.33
2023-05-08T18:16:30.388Z,14.57
2023-05-08T18:19:00.388Z,14.15
2023-05-08T18:21:29.894Z,14.22
2023-05-08T18:23:59.695Z,14.29
2023-05-08T18:26:29.569Z,14.59
2023-05-08T18:28:58.794Z,14.96
2023-05-08T18:31:28.206Z,14.77
2023-05-08T18:33:57.027Z,15.05
2023-05-08T18:36:27.380Z,15.24
2023-05-08T18:38:56.218Z,15.20
2023-05-08T18:41:25.221Z,15.38
2023-05-08T18:43:53.883Z,15.55
2023-05-08T18:46:22.883Z,15.61
2023-05-08T18:48:51.542Z,15.81
2023-05-08T18:51:20.957Z,15.99
2023-05-08T18:53:50.938Z,15.83
2023-05-08T18:56:20.214Z,15.89
2023-05-08T18:58:49.229Z,15.85
2023-05-08T19:01:20.237Z,15.97
2023-05-08T19:03:49.241Z,15.73
2023-05-08T19:06:18.233Z,15.81
2023-05-08T19:08:47.448Z,15.89
2023-05-08T19:11:17.978Z,15.76
2023-05-08T19:13:46.809Z,15.59
2023-05-08T19:16:15.767Z,15.71
2023-05-08T19:18:44.481Z,15.73
2023-05-08T19:21:13.503Z,15.75
2023-05-08T19:23:42.148Z,15.72
2023-05-08T19:26:11.117Z,15.69
2023-05-08T19:28:41.138Z,15.73
2023-05-08T19:31:10.272Z,15.66
2023-05-08T19:33:39.364Z,15.46
2023-05-08T19:36:08.277Z,15.27
2023-05-08T19:38:40.100Z,15.47
2023-05-08T19:41:09.158Z,15.32
2023-05-08T19:43:37.823Z,15.37
2023-05-08T19:46:08.238Z,15.17
2023-05-08T19:48:36.909Z,15.11
2023-05-08T19:51:09.910Z,15.30
2023-05-08T19:53:39.884Z,15.32
2023-05-08T19:56:09.053Z,15.25
2023-05-08T19:58:37.888Z,15.30
2023-05-08T20:01:08.298Z,15.16
2023-05-08T20:03:37.041Z,15.24
2023-05-08T20:06:06.240Z,15.12
2023-05-08T20:08:35.097Z,15.30
2023-05-08T20:11:05.526Z,15.24
2023-05-08T20:13:34.119Z,15.18
2023-05-08T20:16:03.156Z,15.05
2023-05-08T20:18:35.097Z,15.14
2023-05-08T20:21:04.017Z,15.10
2023-05-08T20:23:33.013Z,14.76
2023-05-08T20:26:04.292Z,14.55
2023-05-08T20:28:32.930Z,14.40
2023-05-08T20:31:02.399Z,14.62
2023-05-08T20:33:32.667Z,14.67
2023-05-08T20:36:01.703Z,14.55
2023-05-08T20:38:30.465Z,14.53
2023-05-08T20:41:01.014Z,14.45
2023-05-08T20:43:30.121Z,14.45
2023-05-08T20:45:59.150Z,14.48
2023-05-08T20:48:28.041Z,14.09
2023-05-08T20:50:58.395Z,14.11
2023-05-08T20:53:26.964Z,14.17
2023-05-08T20:56:01.921Z,14.36
2023-05-08T20:58:31.319Z,14.41
2023-05-08T21:01:00.264Z,14.34
2023-05-08T21:03:28.936Z,14.24
2023-05-08T21:05:59.193Z,14.20
2023-05-08T21:08:27.850Z,14.04
2023-05-08T21:10:56.899Z,14.03
2023-05-08T21:13:25.618Z,14.03
2023-05-08T21:15:54.682Z,14.02
2023-05-08T21:18:23.251Z,13.92
2023-05-08T21:20:52.637Z,13.86
2023-05-08T21:23:22.612Z,13.45
2023-05-08T21:25:51.814Z,13.38
2023-05-08T21:28:20.340Z,13.29
2023-05-08T21:30:49.297Z,13.21
2023-05-08T21:33:17.827Z,13.20
2023-05-08T21:35:47.917Z,13.09
2023-05-08T21:38:16.501Z,13.19
2023-05-08T21:40:46.781Z,13.08
2023-05-08T21:43:15.501Z,13.14
2023-05-08T21:45:44.398Z,13.22
2023-05-08T21:48:13.104Z,13.15
2023-05-08T21:50:42.058Z,12.98
2023-05-08T21:53:10.760Z,12.87
2023-05-08T21:55:39.775Z,12.79
2023-05-08T21:58:09.847Z,12.91
2023-05-08T22:00:39.050Z,12.88
2023-05-08T22:03:07.960Z,13.07
2023-05-08T22:05:36.856Z,13.14
2023-05-08T22:08:05.572Z,13.15
2023-05-08T22:10:34.615Z,13.17
2023-05-08T22:13:03.162Z,13.12
2023-05-08T22:15:33.657Z,13.16
2023-05-08T22:18:02.859Z,12.97
2023-05-08T22:20:32.113Z,12.89
2023-05-08T22:23:00.811Z,12.71
2023-05-08T22:25:29.944Z,12.73
2023-05-08T22:27:58.574Z,12.78
2023-05-08T22:30:27.643Z,12.84
2023-05-08T22:32:59.582Z,12.90
2023-05-08T22:35:28.840Z,12.78
2023-05-08T22:37:58.407Z,12.81
2023-05-08T22:40:27.650Z,12.86
2023-05-08T22:42:58.829Z,12.84
2023-05-08T22:45:28.052Z,12.69
2023-05-08T22:47:58.696Z,12.77
2023-05-08T22:50:27.817Z,12.90
2023-05-08T22:52:56.680Z,12.92
2023-05-08T22:55:25.862Z,12.93
2023-05-08T22:57:54.420Z,12.96
2023-05-08T23:00:23.483Z,12.98
2023-05-08T23:02:52.227Z,12.96
2023-05-08T23:05:22.959Z,12.79
2023-05-08T23:07:51.681Z,12.70
2023-05-08T23:10:20.621Z,12.71
2023-05-08T23:12:49.300Z,12.68
2023-05-08T23:15:18.598Z,12.65
2023-05-08T23:17:47.378Z,12.67
2023-05-08T23:20:16.537Z,12.72
2023-05-08T23:22:46.468Z,12.74
2023-05-08T23:25:15.965Z,12.80
2023-05-08T23:27:44.660Z,12.79
2023-05-08T23:30:16.763Z,12.67
2023-05-08T23:32:45.610Z,12.76
2023-05-08T23:35:14.959Z,12.54
2023-05-08T23:37:43.985Z,12.60
2023-05-08T23:40:14.698Z,12.49
2023-05-08T23:42:43.390Z,12.46
2023-05-08T23:45:13.034Z,12.36
2023-05-08T23:47:41.983Z,12.28
2023-05-08T23:50:11.967Z,12.25
2023-05-08T23:52:40.575Z,12.16
2023-05-08T23:55:10.463Z,12.06
2023-05-08T23:57:40.842Z,11.87
